createdAt,value
2022-12-22T00:02:00.520Z,130.23
2022-12-22T00:04:47.924Z,156.88
2022-12-22T00:07:34.433Z,152.90
2022-12-22T00:10:20.681Z,167.98
2022-12-22T00:13:08.494Z,176.48
2022-12-22T00:15:55.031Z,123.30
2022-12-22T00:18:41.042Z,153.50
2022-12-22T00:21:29.817Z,168.90
2022-12-22T00:24:16.428Z,158.63
2022-12-22T00:27:03.329Z,146.90
2022-12-22T00:29:56.119Z,160.15
2022-12-22T00:32:42.955Z,149.18
2022-12-22T00:35:32.775Z,145.15
2022-12-22T00:38:19.252Z,123.63
2022-12-22T00:41:05.227Z,155.93
2022-12-22T00:43:51.525Z,146.48
2022-12-22T00:46:39.151Z,149.90
2022-12-22T00:49:27.123Z,168.68
2022-12-22T00:52:13.597Z,138.43
2022-12-22T00:55:00.470Z,162.10
2022-12-22T00:57:47.159Z,185.18
2022-12-22T01:00:34.459Z,168.93
2022-12-22T01:03:23.045Z,212.60
2022-12-22T01:06:09.532Z,152.23
2022-12-22T01:08:55.789Z,207.95
2022-12-22T01:11:42.408Z,231.75
2022-12-22T01:14:29.373Z,160.57
2022-12-22T01:17:16.060Z,260.73
2022-12-22T01:20:03.734Z,270.52
2022-12-22T01:22:50.010Z,235.18
2022-12-22T01:25:37.757Z,235.65
2022-12-22T01:28:24.376Z,238.98
2022-12-22T01:31:10.896Z,251.93
2022-12-22T01:33:57.353Z,304.55
2022-12-22T01:36:44.868Z,95.97
2022-12-22T01:39:31.364Z,221.50
2022-12-22T01:42:17.779Z,383.42
2022-12-22T01:45:04.008Z,399.25
2022-12-22T01:47:53.056Z,411.70
2022-12-22T01:50:46.717Z,250.05
2022-12-22T01:53:38.467Z,106.40
2022-12-22T01:56:25.516Z,328.13
2022-12-22T01:59:14.034Z,186.00
2022-12-22T02:02:01.121Z,396.55
2022-12-22T02:04:50.564Z,226.82
2022-12-22T02:07:47.398Z,341.00
2022-12-22T02:10:44.258Z,413.15
2022-12-22T02:13:38.295Z,444.20
2022-12-22T02:16:30.059Z,290.73
2022-12-22T02:19:20.998Z,459.23
2022-12-22T02:22:15.608Z,234.07
2022-12-22T02:25:06.221Z,215.82
2022-12-22T02:27:54.855Z,299.77
2022-12-22T02:30:40.957Z,404.88
2022-12-22T02:33:28.038Z,548.55
2022-12-22T02:36:23.570Z,418.02
2022-12-22T02:39:21.148Z,224.00
2022-12-22T02:42:12.220Z,382.45
2022-12-22T02:45:05.412Z,412.58
2022-12-22T02:47:56.343Z,357.17
2022-12-22T02:50:47.635Z,415.58
2022-12-22T02:53:34.932Z,202.95
2022-12-22T02:56:25.183Z,258.45
2022-12-22T03:02:02.082Z,90.88
2022-12-22T03:04:48.553Z,208.63
2022-12-22T03:07:35.052Z,259.40
2022-12-22T03:10:23.109Z,215.40
2022-12-22T03:13:09.521Z,187.82
2022-12-22T03:15:56.334Z,201.35
2022-12-22T03:18:44.525Z,128.65
2022-12-22T03:21:30.931Z,189.27
2022-12-22T03:24:17.568Z,151.63
2022-12-22T03:26:46.573Z,174.02
2022-12-22T03:29:15.762Z,138.65
2022-12-22T03:31:44.845Z,161.77
2022-12-22T03:34:15.658Z,160.70
2022-12-22T03:36:44.797Z,169.25
2022-12-22T03:39:13.955Z,117.13
2022-12-22T03:42:00.530Z,153.75
2022-12-22T03:44:47.075Z,121.60
2022-12-22T03:47:16.139Z,139.30
2022-12-22T03:49:46.370Z,133.98
2022-12-22T03:52:15.483Z,146.65
2022-12-22T03:54:44.533Z,131.38
2022-12-22T03:57:13.554Z,115.43
2022-12-22T03:59:42.683Z,104.10
2022-12-22T04:02:11.879Z,92.47
2022-12-22T04:04:40.703Z,114.22
2022-12-22T04:07:11.193Z,109.22
2022-12-22T04:10:00.739Z,87.32
2022-12-22T04:12:47.383Z,89.93
2022-12-22T04:15:16.530Z,85.50
2022-12-22T04:17:45.570Z,92.25
2022-12-22T04:20:14.795Z,106.63
2022-12-22T04:22:44.984Z,59.72
2022-12-22T04:25:14.828Z,76.20
2022-12-22T04:27:44.135Z,98.65
2022-12-22T04:30:14.368Z,93.22
2022-12-22T04:32:43.940Z,92.60
2022-12-22T04:35:13.436Z,81.97
2022-12-22T04:37:42.155Z,80.40
2022-12-22T04:40:13.158Z,81.38
2022-12-22T04:42:42.286Z,40.53
2022-12-22T04:45:12.389Z,83.25
2022-12-22T04:47:41.476Z,45.63
2022-12-22T04:50:11.175Z,88.20
2022-12-22T04:52:40.005Z,98.53
2022-12-22T04:55:09.905Z,86.68
2022-12-22T04:57:41.276Z,106.95
2022-12-22T05:00:12.181Z,83.47
2022-12-22T05:02:41.452Z,83.60
2022-12-22T05:05:11.229Z,78.15
2022-12-22T05:07:39.915Z,73.63
2022-12-22T05:10:10.394Z,72.38
2022-12-22T05:12:55.929Z,77.07
2022-12-22T05:15:26.045Z,72.30
2022-12-22T05:17:56.208Z,99.38
2022-12-22T05:20:25.556Z,97.10
2022-12-22T05:22:54.278Z,77.60
2022-12-22T05:25:23.547Z,88.35
2022-12-22T05:27:54.026Z,92.72
2022-12-22T05:32:52.091Z,80.45
2022-12-22T05:35:21.496Z,66.10
2022-12-22T05:37:50.926Z,68.43
2022-12-22T05:40:20.162Z,79.93
2022-12-22T05:42:49.221Z,76.13
2022-12-22T05:45:21.031Z,64.30
2022-12-22T05:47:51.920Z,88.72
2022-12-22T05:50:22.483Z,83.65
2022-12-22T05:53:00.112Z,75.53
2022-12-22T05:55:29.490Z,76.53
2022-12-22T05:58:03.110Z,65.33
2022-12-22T06:00:34.144Z,87.47
2022-12-22T06:03:03.532Z,76.00
2022-12-22T06:05:32.654Z,75.95
2022-12-22T06:08:01.822Z,85.13
2022-12-22T06:10:30.576Z,88.30
2022-12-22T06:12:59.583Z,79.35
2022-12-22T06:15:28.607Z,83.53
2022-12-22T06:17:59.050Z,73.82
2022-12-22T06:20:28.256Z,75.25
2022-12-22T06:22:56.895Z,81.45
2022-12-22T06:25:25.951Z,69.38
2022-12-22T06:27:54.976Z,68.57
2022-12-22T06:30:30.927Z,79.70
2022-12-22T06:33:03.848Z,73.13
2022-12-22T06:35:33.055Z,73.15
2022-12-22T06:38:02.036Z,84.82
2022-12-22T06:40:30.608Z,74.78
2022-12-22T06:43:11.287Z,69.90
2022-12-22T06:45:42.558Z,75.75
2022-12-22T06:48:13.874Z,50.33
2022-12-22T06:50:42.985Z,62.30
2022-12-22T06:53:12.276Z,73.63
2022-12-22T06:55:42.592Z,73.13
2022-12-22T06:58:11.704Z,68.90
2022-12-22T07:00:40.731Z,57.17
2022-12-22T07:03:10.267Z,60.47
2022-12-22T07:05:41.030Z,57.28
2022-12-22T07:08:11.271Z,47.78
2022-12-22T07:11:01.041Z,64.57
2022-12-22T07:13:33.607Z,53.22
2022-12-22T07:16:03.123Z,53.22
2022-12-22T07:18:33.818Z,54.67
2022-12-22T07:21:06.367Z,65.93
2022-12-22T07:23:35.651Z,58.47
2022-12-22T07:26:06.124Z,67.38
2022-12-22T07:28:35.583Z,66.97
2022-12-22T07:31:05.091Z,69.72
2022-12-22T07:33:34.327Z,64.23
2022-12-22T07:36:10.635Z,52.20
2022-12-22T07:38:41.409Z,57.83
2022-12-22T07:41:25.231Z,64.15
2022-12-22T07:43:54.533Z,60.15
2022-12-22T07:46:24.053Z,51.35
2022-12-22T07:49:11.080Z,55.50
2022-12-22T07:51:42.752Z,56.33
2022-12-22T07:54:13.113Z,52.45
2022-12-22T07:59:11.507Z,50.92
2022-12-22T08:01:41.833Z,34.45
2022-12-22T08:04:12.044Z,46.30
2022-12-22T08:06:42.557Z,46.17
2022-12-22T08:09:15.590Z,40.90
2022-12-22T08:11:44.833Z,54.92
2022-12-22T08:14:14.976Z,44.38
2022-12-22T08:16:43.811Z,51.22
2022-12-22T08:19:13.053Z,48.85
2022-12-22T08:21:52.182Z,52.35
2022-12-22T08:24:22.350Z,51.97
2022-12-22T08:26:52.882Z,43.38
2022-12-22T08:29:24.095Z,44.78
2022-12-22T08:31:52.966Z,43.05
2022-12-22T08:34:22.108Z,38.15
2022-12-22T08:36:55.363Z,37.25
2022-12-22T08:39:25.510Z,41.90
2022-12-22T08:41:55.498Z,40.35
2022-12-22T08:44:26.446Z,40.75
2022-12-22T08:46:56.820Z,38.50
2022-12-22T08:49:26.276Z,40.55
2022-12-22T08:51:57.635Z,49.97
2022-12-22T08:54:26.721Z,43.63
2022-12-22T08:56:55.745Z,45.55
2022-12-22T08:59:24.746Z,46.20
2022-12-22T09:01:53.535Z,41.72
2022-12-22T09:04:25.560Z,42.83
2022-12-22T09:06:54.697Z,33.47
2022-12-22T09:09:26.636Z,31.70
2022-12-22T09:11:55.728Z,29.77
2022-12-22T09:14:24.812Z,34.33
2022-12-22T09:16:54.524Z,32.15
2022-12-22T09:19:23.852Z,39.15
2022-12-22T09:21:52.966Z,38.60
2022-12-22T09:24:22.059Z,43.63
2022-12-22T09:26:52.530Z,47.22
2022-12-22T09:29:21.678Z,42.42
2022-12-22T09:31:50.433Z,42.05
2022-12-22T09:34:19.654Z,37.33
2022-12-22T09:36:49.055Z,39.88
2022-12-22T09:39:23.531Z,39.47
2022-12-22T09:41:59.450Z,43.60
2022-12-22T09:44:30.657Z,43.92
2022-12-22T09:47:01.620Z,44.90
2022-12-22T09:49:30.964Z,42.10
2022-12-22T09:52:01.816Z,33.33
2022-12-22T09:54:31.680Z,48.03
2022-12-22T09:57:03.090Z,35.50
2022-12-22T09:59:32.738Z,31.02
2022-12-22T10:02:09.720Z,42.67
2022-12-22T10:04:47.171Z,43.72
2022-12-22T10:07:24.022Z,42.53
2022-12-22T10:09:53.546Z,43.75
2022-12-22T10:12:26.388Z,45.92
2022-12-22T10:14:56.460Z,42.80
2022-12-22T10:17:28.384Z,28.60
2022-12-22T10:20:11.877Z,44.80
2022-12-22T10:22:47.678Z,41.40
2022-12-22T10:25:39.848Z,48.13
2022-12-22T10:28:22.384Z,49.00
2022-12-22T10:30:51.488Z,53.85
2022-12-22T10:33:21.011Z,49.58
2022-12-22T10:35:52.710Z,47.37
2022-12-22T10:38:26.005Z,50.53
2022-12-22T10:41:02.111Z,49.45
2022-12-22T10:43:35.601Z,48.70
2022-12-22T10:46:05.554Z,54.78
2022-12-22T10:48:35.831Z,51.03
2022-12-22T10:51:07.830Z,50.83
2022-12-22T10:53:46.292Z,52.63
2022-12-22T10:56:23.121Z,43.05
2022-12-22T10:58:55.106Z,53.58
2022-12-22T11:01:29.966Z,48.10
2022-12-22T11:04:00.468Z,55.60
2022-12-22T11:06:29.781Z,57.40
2022-12-22T11:09:31.364Z,51.08
2022-12-22T11:11:51.967Z,44.20
2022-12-22T11:14:31.279Z,39.65
2022-12-22T11:17:03.825Z,54.80
2022-12-22T11:19:44.858Z,52.97
2022-12-22T11:22:25.282Z,60.08
2022-12-22T11:25:04.767Z,51.00
2022-12-22T11:27:45.707Z,33.90
2022-12-22T11:30:21.923Z,51.58
2022-12-22T11:33:08.415Z,32.72
2022-12-22T11:35:49.247Z,33.97
2022-12-22T11:38:23.719Z,40.95
2022-12-22T11:40:55.728Z,41.65
2022-12-22T11:43:27.427Z,40.60
2022-12-22T11:46:13.119Z,37.65
2022-12-22T11:48:52.375Z,38.72
2022-12-22T11:51:28.349Z,40.83
2022-12-22T11:54:21.779Z,42.83
2022-12-22T11:56:57.008Z,39.22
2022-12-22T11:59:36.508Z,36.95
2022-12-22T12:02:29.300Z,43.22
2022-12-22T12:05:21.850Z,38.15
2022-12-22T12:07:53.538Z,42.13
2022-12-22T12:10:25.204Z,35.35
2022-12-22T12:12:58.531Z,50.00
2022-12-22T12:15:32.794Z,40.22
2022-12-22T12:18:40.842Z,38.60
2022-12-22T12:21:24.710Z,45.70
2022-12-22T12:24:14.862Z,47.10
2022-12-22T12:26:50.474Z,45.13
2022-12-22T12:29:21.834Z,44.40
2022-12-22T12:31:57.386Z,42.10
2022-12-22T12:34:29.124Z,43.00
2022-12-22T12:37:00.591Z,23.40
2022-12-22T12:39:33.346Z,39.55
2022-12-22T12:42:08.682Z,39.65
2022-12-22T12:44:38.795Z,27.08
2022-12-22T12:47:20.195Z,41.90
2022-12-22T12:50:03.573Z,36.25
2022-12-22T12:53:15.102Z,52.70
2022-12-22T12:56:07.930Z,55.10
2022-12-22T12:58:58.294Z,35.03
2022-12-22T13:04:14.054Z,42.95
2022-12-22T13:06:54.575Z,46.75
2022-12-22T13:09:50.421Z,41.63
2022-12-22T13:12:34.843Z,54.22
2022-12-22T13:15:04.006Z,57.13
2022-12-22T13:17:42.813Z,52.92
2022-12-22T13:20:16.512Z,43.88
2022-12-22T13:22:47.291Z,43.50
2022-12-22T13:25:17.747Z,51.45
2022-12-22T13:27:46.845Z,55.60
2022-12-22T13:30:18.150Z,64.63
2022-12-22T13:32:49.468Z,51.13
2022-12-22T13:35:31.501Z,63.90
2022-12-22T13:38:03.330Z,68.28
2022-12-22T13:40:33.659Z,59.80
2022-12-22T13:45:38.634Z,63.40
2022-12-22T13:48:11.706Z,63.90
2022-12-22T13:50:44.582Z,66.95
2022-12-22T13:53:42.178Z,69.18
2022-12-22T13:56:09.359Z,57.90
2022-12-22T13:58:39.705Z,67.70
2022-12-22T14:04:06.923Z,59.70
2022-12-22T14:06:37.934Z,49.15
2022-12-22T14:09:19.153Z,60.25
2022-12-22T14:11:52.549Z,60.92
2022-12-22T14:14:28.198Z,46.28
2022-12-22T14:16:59.643Z,61.80
2022-12-22T14:19:32.983Z,47.85
2022-12-22T14:22:09.944Z,62.88
2022-12-22T14:24:45.127Z,61.15
2022-12-22T14:27:20.739Z,61.72
2022-12-22T14:29:49.987Z,43.65
2022-12-22T14:32:37.010Z,64.60
2022-12-22T14:35:07.776Z,70.10
2022-12-22T14:37:36.871Z,58.33
2022-12-22T14:40:15.089Z,66.03
2022-12-22T14:42:44.866Z,61.47
2022-12-22T14:45:16.697Z,56.22
2022-12-22T14:47:45.754Z,56.15
2022-12-22T14:50:18.505Z,70.00
2022-12-22T14:52:51.175Z,55.33
2022-12-22T14:55:27.834Z,51.90
2022-12-22T14:58:01.167Z,61.08
2022-12-22T15:00:33.752Z,42.63
2022-12-22T15:03:05.165Z,47.95
2022-12-22T15:05:35.394Z,52.45
2022-12-22T15:10:40.633Z,49.15
2022-12-22T15:13:14.904Z,55.65
2022-12-22T15:15:44.228Z,61.22
2022-12-22T15:18:15.572Z,60.22
2022-12-22T15:20:44.792Z,63.42
2022-12-22T15:23:16.976Z,76.15
2022-12-22T15:25:47.467Z,66.30
2022-12-22T15:28:16.651Z,58.22
2022-12-22T15:30:45.776Z,60.45
2022-12-22T15:33:15.586Z,63.72
2022-12-22T15:35:44.986Z,68.63
2022-12-22T15:38:15.900Z,84.50
2022-12-22T15:40:46.473Z,83.65
2022-12-22T15:43:55.575Z,75.72
2022-12-22T15:46:07.701Z,48.22
2022-12-22T15:48:38.257Z,69.93
2022-12-22T15:51:09.132Z,68.85
2022-12-22T15:53:38.710Z,63.08
2022-12-22T15:56:17.455Z,64.10
2022-12-22T15:58:46.723Z,72.43
2022-12-22T16:01:15.931Z,59.08
2022-12-22T16:03:45.560Z,68.05
2022-12-22T16:06:15.632Z,58.58
2022-12-22T16:08:47.224Z,64.75
2022-12-22T16:11:18.195Z,79.40
2022-12-22T16:13:47.178Z,81.05
2022-12-22T16:16:16.356Z,75.35
2022-12-22T16:18:45.438Z,78.22
2022-12-22T16:21:17.218Z,85.20
2022-12-22T16:23:48.720Z,85.53
2022-12-22T16:26:21.275Z,81.13
2022-12-22T16:28:50.174Z,77.35
2022-12-22T16:31:20.831Z,74.75
2022-12-22T16:33:50.573Z,78.85
2022-12-22T16:36:19.949Z,73.07
2022-12-22T16:38:48.936Z,75.55
2022-12-22T16:41:23.121Z,74.03
2022-12-22T16:43:53.021Z,73.43
2022-12-22T16:46:23.577Z,61.78
2022-12-22T16:48:54.616Z,67.38
2022-12-22T16:51:26.105Z,63.90
2022-12-22T16:53:55.463Z,58.85
2022-12-22T16:56:27.070Z,69.55
2022-12-22T16:58:55.855Z,63.88
2022-12-22T17:01:36.030Z,48.95
2022-12-22T17:04:08.058Z,51.55
2022-12-22T17:06:38.245Z,57.72
2022-12-22T17:09:11.837Z,60.78
2022-12-22T17:11:42.460Z,55.67
2022-12-22T17:14:18.722Z,56.00
2022-12-22T17:16:47.423Z,49.95
2022-12-22T17:19:16.520Z,54.28
2022-12-22T17:21:45.602Z,56.03
2022-12-22T17:24:15.773Z,56.60
2022-12-22T17:26:46.563Z,62.25
2022-12-22T17:29:16.538Z,35.92
2022-12-22T17:31:45.269Z,41.40
2022-12-22T17:34:16.771Z,53.15
2022-12-22T17:36:47.158Z,48.63
2022-12-22T17:41:54.048Z,53.65
2022-12-22T17:44:27.264Z,46.65
2022-12-22T17:46:56.678Z,51.95
2022-12-22T17:49:25.935Z,57.55
2022-12-22T17:51:55.220Z,47.80
2022-12-22T17:54:26.127Z,40.10
2022-12-22T17:57:00.499Z,49.30
2022-12-22T17:59:29.741Z,42.67
2022-12-22T18:01:58.906Z,49.58
2022-12-22T18:04:27.729Z,55.90
2022-12-22T18:06:56.844Z,47.47
2022-12-22T18:09:26.924Z,45.58
2022-12-22T18:11:57.415Z,48.95
2022-12-22T18:14:27.638Z,45.35
2022-12-22T18:16:56.457Z,40.30
2022-12-22T18:19:25.672Z,45.40
2022-12-22T18:21:54.940Z,51.70
2022-12-22T18:24:24.053Z,46.83
2022-12-22T18:26:53.194Z,40.20
2022-12-22T18:29:23.745Z,39.97
2022-12-22T18:31:52.595Z,41.85
2022-12-22T18:34:21.941Z,35.13
2022-12-22T18:36:51.227Z,27.45
2022-12-22T18:39:20.386Z,25.00
2022-12-22T18:41:49.744Z,28.83
2022-12-22T18:44:19.791Z,30.67
2022-12-22T18:46:49.960Z,32.15
2022-12-22T18:49:19.086Z,25.88
2022-12-22T18:51:48.323Z,30.65
2022-12-22T18:54:36.486Z,24.65
2022-12-22T18:57:07.274Z,27.13
2022-12-22T18:59:36.996Z,39.45
2022-12-22T19:02:24.961Z,40.65
2022-12-22T19:04:54.189Z,30.35
2022-12-22T19:07:25.739Z,25.53
2022-12-22T19:09:54.839Z,31.05
2022-12-22T19:12:25.382Z,39.15
2022-12-22T19:14:57.307Z,36.80
2022-12-22T19:17:29.040Z,22.88
2022-12-22T19:19:58.157Z,25.45
2022-12-22T19:22:27.256Z,36.20
2022-12-22T19:24:59.050Z,39.75
2022-12-22T19:27:29.377Z,28.02
2022-12-22T19:32:42.004Z,37.08
2022-12-22T19:35:15.698Z,32.97
2022-12-22T19:37:44.994Z,40.88
2022-12-22T19:40:15.287Z,29.30
2022-12-22T19:45:21.991Z,42.13
2022-12-22T19:47:53.756Z,30.08
2022-12-22T19:50:24.955Z,36.70
2022-12-22T19:52:54.464Z,36.60
2022-12-22T19:55:25.810Z,34.42
2022-12-22T19:57:55.592Z,29.02
2022-12-22T20:00:26.326Z,27.98
2022-12-22T20:02:58.147Z,35.45
2022-12-22T20:05:32.170Z,33.53
2022-12-22T20:08:02.508Z,42.63
2022-12-22T20:10:33.803Z,30.23
2022-12-22T20:13:05.272Z,36.47
2022-12-22T20:15:37.264Z,34.95
2022-12-22T20:18:16.863Z,38.00
2022-12-22T20:20:49.393Z,33.88
2022-12-22T20:23:23.691Z,36.70
2022-12-22T20:25:53.857Z,34.55
2022-12-22T20:28:26.021Z,23.33
2022-12-22T20:30:55.677Z,28.83
2022-12-22T20:33:26.941Z,33.08
2022-12-22T20:35:57.899Z,41.50
2022-12-22T20:38:32.955Z,32.58
2022-12-22T20:41:02.371Z,26.77
2022-12-22T20:43:32.793Z,34.53
2022-12-22T20:48:35.196Z,27.37
2022-12-22T20:51:06.866Z,29.95
2022-12-22T20:53:36.039Z,30.02
2022-12-22T20:56:14.194Z,36.13
2022-12-22T20:58:42.933Z,34.92
2022-12-22T21:01:12.056Z,33.30
2022-12-22T21:03:42.671Z,34.08
2022-12-22T21:06:26.245Z,29.83
2022-12-22T21:08:57.744Z,32.35
2022-12-22T21:13:55.831Z,18.23
2022-12-22T21:16:26.275Z,14.73
2022-12-22T21:18:57.097Z,36.30
2022-12-22T21:21:26.225Z,38.13
2022-12-22T21:23:55.301Z,32.40
2022-12-22T21:26:27.852Z,34.85
2022-12-22T21:28:56.584Z,35.28
2022-12-22T21:31:25.611Z,36.88
2022-12-22T21:33:54.759Z,27.27
2022-12-22T21:36:27.275Z,29.48
2022-12-22T21:38:58.395Z,22.30
2022-12-22T21:41:41.202Z,35.95
2022-12-22T21:44:12.450Z,39.42
2022-12-22T21:46:42.223Z,35.17
2022-12-22T21:49:17.333Z,27.75
2022-12-22T21:51:48.132Z,28.45
2022-12-22T21:54:17.296Z,32.22
2022-12-22T21:56:46.523Z,38.85
2022-12-22T21:59:15.783Z,35.75
2022-12-22T22:01:45.018Z,29.88
2022-12-22T22:04:14.697Z,36.78
2022-12-22T22:06:43.642Z,36.17
2022-12-22T22:09:14.264Z,33.30
2022-12-22T22:11:57.009Z,39.40
2022-12-22T22:14:26.168Z,39.50
2022-12-22T22:16:54.862Z,42.08
2022-12-22T22:19:23.841Z,42.13
2022-12-22T22:21:52.846Z,34.80
2022-12-22T22:24:23.354Z,40.92
2022-12-22T22:26:52.353Z,37.25
2022-12-22T22:29:21.549Z,42.03
2022-12-22T22:31:50.291Z,39.50
2022-12-22T22:34:19.390Z,39.58
2022-12-22T22:36:48.566Z,43.47
2022-12-22T22:39:17.619Z,40.95
2022-12-22T22:41:48.041Z,34.85
2022-12-22T22:44:17.271Z,42.88
2022-12-22T22:46:45.923Z,37.85
2022-12-22T22:49:15.319Z,47.22
2022-12-22T22:51:44.625Z,37.17
2022-12-22T22:54:13.808Z,50.95
2022-12-22T22:56:43.046Z,40.95
2022-12-22T22:59:14.609Z,40.63
2022-12-22T23:01:43.399Z,55.65
2022-12-22T23:04:13.121Z,44.58
2022-12-22T23:06:42.701Z,47.22
2022-12-22T23:09:11.916Z,44.67
2022-12-22T23:11:40.874Z,47.78
2022-12-22T23:14:10.002Z,45.17
2022-12-22T23:16:40.125Z,47.75
2022-12-22T23:19:09.214Z,44.00
2022-12-22T23:21:38.217Z,46.67
2022-12-22T23:24:08.035Z,40.78
2022-12-22T23:26:37.265Z,39.92
2022-12-22T23:29:06.783Z,40.70
2022-12-22T23:31:36.141Z,46.33
2022-12-22T23:36:36.063Z,40.05
2022-12-22T23:39:05.253Z,40.15
2022-12-22T23:41:34.350Z,45.25
2022-12-22T23:44:03.643Z,41.72
2022-12-22T23:46:32.375Z,40.33
2022-12-22T23:49:01.641Z,44.00
2022-12-22T23:51:32.099Z,39.05
2022-12-22T23:54:02.535Z,38.75
2022-12-22T23:56:32.860Z,34.30
